createdAt,value
2022-08-14T00:01:54.747Z,100794.13
2022-08-14T00:04:35.121Z,100794.47
2022-08-14T00:07:06.962Z,100785.91
2022-08-14T00:09:56.298Z,100796.13
2022-08-14T00:12:24.596Z,100793.75
2022-08-14T00:14:55.188Z,100793.94
2022-08-14T00:17:23.141Z,100792.41
2022-08-14T00:19:51.808Z,100788.41
2022-08-14T00:22:22.109Z,100793.09
2022-08-14T00:25:08.092Z,100791.72
2022-08-14T00:27:37.754Z,100797.28
2022-08-14T00:30:08.184Z,100787.69
2022-08-14T00:33:01.632Z,100784.34
2022-08-14T00:36:34.262Z,100790.22
2022-08-14T00:38:13.304Z,100793.22
2022-08-14T00:40:40.496Z,100779.97
2022-08-14T00:43:13.808Z,100780.13
2022-08-14T00:45:42.991Z,100783.13
2022-08-14T00:48:34.590Z,100776.41
2022-08-14T00:51:05.623Z,100777.91
2022-08-14T00:53:32.859Z,100775.56
2022-08-14T00:56:00.080Z,100772.34
2022-08-14T00:58:33.410Z,100768.16
2022-08-14T01:01:08.084Z,100765.81
2022-08-14T01:03:38.059Z,100766.13
2022-08-14T01:06:09.980Z,100763.06
2022-08-14T01:08:51.355Z,100759.00
2022-08-14T01:11:24.777Z,100758.34
2022-08-14T01:13:56.161Z,100759.34
2022-08-14T01:16:31.136Z,100764.84
2022-08-14T01:19:19.757Z,100754.13
2022-08-14T01:21:52.859Z,100756.16
2022-08-14T01:24:34.216Z,100758.97
2022-08-14T01:27:04.792Z,100761.66
2022-08-14T01:29:59.144Z,100761.66
2022-08-14T01:32:24.968Z,100758.97
2022-08-14T01:35:19.760Z,100758.13
2022-08-14T01:37:46.751Z,100761.66
2022-08-14T01:40:25.553Z,100756.28
2022-08-14T01:43:02.770Z,100757.16
2022-08-14T01:45:31.492Z,100754.31
2022-08-14T01:48:13.731Z,100757.16
2022-08-14T01:50:44.152Z,100760.69
2022-08-14T01:53:12.591Z,100763.34
2022-08-14T01:55:41.040Z,100764.19
2022-08-14T01:58:20.305Z,100761.34
2022-08-14T02:00:55.127Z,100760.34
2022-08-14T02:03:30.967Z,100761.88
2022-08-14T02:05:59.760Z,100762.69
2022-08-14T02:08:34.704Z,100756.34
2022-08-14T02:11:22.632Z,100747.28
2022-08-14T02:13:52.397Z,100745.28
2022-08-14T02:16:26.296Z,100755.00
2022-08-14T02:18:58.914Z,100744.28
2022-08-14T02:21:27.689Z,100750.50
2022-08-14T02:23:57.183Z,100737.91
2022-08-14T02:26:29.496Z,100745.97
2022-08-14T02:29:08.814Z,100745.69
2022-08-14T02:31:43.687Z,100740.31
2022-08-14T02:34:31.967Z,100740.13
2022-08-14T02:37:09.793Z,100728.56
2022-08-14T02:39:43.643Z,100733.94
2022-08-14T02:42:14.725Z,100727.75
2022-08-14T02:44:49.437Z,100733.94
2022-08-14T02:47:20.531Z,100733.81
2022-08-14T02:49:50.649Z,100729.28
2022-08-14T02:52:56.825Z,100717.72
2022-08-14T02:55:19.884Z,100720.53
2022-08-14T02:57:51.999Z,100716.00
2022-08-14T03:00:32.963Z,100720.53
2022-08-14T03:03:02.668Z,100707.31
2022-08-14T03:05:37.145Z,100708.31
2022-08-14T03:08:15.201Z,100707.44
2022-08-14T03:10:48.620Z,100710.13
2022-08-14T03:13:19.534Z,100704.91
2022-08-14T03:15:56.085Z,100705.06
2022-08-14T03:18:31.441Z,100708.59
2022-08-14T03:21:02.035Z,100712.28
2022-08-14T03:23:38.032Z,100710.44
2022-08-14T03:26:12.933Z,100712.13
2022-08-14T03:28:51.274Z,100702.41
2022-08-14T03:31:25.931Z,100703.22
2022-08-14T03:33:54.250Z,100713.28
2022-08-14T03:37:39.254Z,100711.78
2022-08-14T03:39:24.208Z,100706.56
2022-08-14T03:41:54.636Z,100705.75
2022-08-14T03:45:19.986Z,100703.22
2022-08-14T03:47:11.717Z,100706.72
2022-08-14T03:49:42.019Z,100704.22
2022-08-14T03:52:17.989Z,100714.09
2022-08-14T03:54:59.137Z,100711.41
2022-08-14T03:57:32.688Z,100717.78
2022-08-14T04:00:03.711Z,100709.75
2022-08-14T04:02:37.097Z,100702.53
2022-08-14T04:05:16.725Z,100691.81
2022-08-14T04:07:49.780Z,100684.94
2022-08-14T04:10:32.858Z,100684.94
2022-08-14T04:13:06.150Z,100690.47
2022-08-14T04:15:40.893Z,100681.59
2022-08-14T04:18:21.417Z,100672.84
2022-08-14T04:20:54.258Z,100679.03
2022-08-14T04:23:23.539Z,100692.13
2022-08-14T04:25:54.881Z,100687.59
2022-08-14T04:29:06.834Z,100681.25
2022-08-14T04:31:09.740Z,100688.97
2022-08-14T04:33:38.189Z,100689.66
2022-08-14T04:36:06.243Z,100686.63
2022-08-14T04:38:55.094Z,100689.00
2022-08-14T04:41:43.342Z,100685.31
2022-08-14T04:44:13.365Z,100684.84
2022-08-14T04:47:12.601Z,100687.22
2022-08-14T04:49:56.692Z,100687.72
2022-08-14T04:52:25.445Z,100684.38
2022-08-14T04:54:54.470Z,100683.38
2022-08-14T04:57:22.884Z,100674.47
2022-08-14T04:59:52.721Z,100684.72
2022-08-14T05:02:24.471Z,100683.56
2022-08-14T05:04:58.592Z,100686.56
2022-08-14T05:07:46.883Z,100684.06
2022-08-14T05:10:16.768Z,100680.72
2022-08-14T05:13:12.633Z,100673.66
2022-08-14T05:15:39.685Z,100674.00
2022-08-14T05:18:17.222Z,100671.50
2022-08-14T05:21:54.460Z,100672.66
2022-08-14T05:23:37.800Z,100670.00
2022-08-14T05:26:17.170Z,100671.00
2022-08-14T05:28:45.949Z,100669.84
2022-08-14T05:31:20.529Z,100666.97
2022-08-14T05:33:56.388Z,100664.41
2022-08-14T05:36:25.652Z,100658.50
2022-08-14T05:38:55.315Z,100658.97
2022-08-14T05:41:22.716Z,100645.00
2022-08-14T05:43:51.199Z,100639.94
2022-08-14T05:46:43.859Z,100637.06
2022-08-14T05:49:14.378Z,100641.31
2022-08-14T05:51:41.606Z,100646.28
2022-08-14T05:54:13.581Z,100645.94
2022-08-14T05:56:54.326Z,100650.75
2022-08-14T05:59:36.390Z,100656.53
2022-08-14T06:02:10.736Z,100650.56
2022-08-14T06:04:39.354Z,100651.91
2022-08-14T06:07:06.953Z,100646.66
2022-08-14T06:09:35.931Z,100652.16
2022-08-14T06:12:09.552Z,100651.44
2022-08-14T06:14:37.409Z,100645.66
2022-08-14T06:17:06.370Z,100652.84
2022-08-14T06:19:33.573Z,100650.25
2022-08-14T06:22:02.170Z,100644.78
2022-08-14T06:24:30.598Z,100632.28
2022-08-14T06:27:06.120Z,100637.94
2022-08-14T06:29:35.233Z,100634.44
2022-08-14T06:32:37.328Z,100628.72
2022-08-14T06:35:04.335Z,100629.31
2022-08-14T06:37:47.724Z,100627.56
2022-08-14T06:40:26.695Z,100625.81
2022-08-14T06:43:00.225Z,100622.03
2022-08-14T06:45:34.130Z,100621.19
2022-08-14T06:48:01.293Z,100625.38
2022-08-14T06:50:30.439Z,100638.94
2022-08-14T06:52:58.825Z,100628.44
2022-08-14T06:55:28.169Z,100632.50
2022-08-14T06:57:57.809Z,100625.84
2022-08-14T07:00:31.231Z,100628.22
2022-08-14T07:03:19.111Z,100623.94
2022-08-14T07:05:57.942Z,100622.59
2022-08-14T07:08:29.604Z,100615.47
2022-08-14T07:11:00.969Z,100607.31
2022-08-14T07:13:30.574Z,100606.84
2022-08-14T07:15:59.016Z,100607.91
2022-08-14T07:18:31.124Z,100611.53
2022-08-14T07:20:59.811Z,100608.06
2022-08-14T07:23:27.565Z,100609.38
2022-08-14T07:25:58.209Z,100606.22
2022-08-14T07:28:28.791Z,100612.75
2022-08-14T07:31:05.121Z,100609.72
2022-08-14T07:33:45.592Z,100610.41
2022-08-14T07:36:26.530Z,100604.59
2022-08-14T07:39:00.911Z,100593.25
2022-08-14T07:41:33.876Z,100599.72
2022-08-14T07:44:29.308Z,100600.66
2022-08-14T07:46:50.978Z,100591.78
2022-08-14T07:49:19.290Z,100594.56
2022-08-14T07:51:49.336Z,100586.28
2022-08-14T07:54:23.681Z,100585.28
2022-08-14T07:57:06.549Z,100589.69
2022-08-14T07:59:43.764Z,100585.28
2022-08-14T08:02:19.097Z,100583.69
2022-08-14T08:04:54.447Z,100580.16
2022-08-14T08:07:29.953Z,100581.47
2022-08-14T08:09:58.455Z,100581.88
2022-08-14T08:12:30.866Z,100585.44
2022-08-14T08:15:03.087Z,100582.56
2022-08-14T08:17:38.938Z,100582.56
2022-08-14T08:20:15.641Z,100579.22
2022-08-14T08:22:48.446Z,100574.66
2022-08-14T08:25:18.829Z,100566.28
2022-08-14T08:28:21.800Z,100574.19
2022-08-14T08:31:00.084Z,100569.41
2022-08-14T08:33:37.254Z,100573.16
2022-08-14T08:36:08.182Z,100571.19
2022-08-14T08:39:14.803Z,100570.72
2022-08-14T08:41:27.936Z,100567.72
2022-08-14T08:44:05.780Z,100572.19
2022-08-14T08:46:44.725Z,100570.66
2022-08-14T08:49:15.422Z,100556.66
2022-08-14T08:51:42.997Z,100560.19
2022-08-14T08:54:18.362Z,100546.84
2022-08-14T08:56:48.525Z,100549.31
2022-08-14T08:59:34.202Z,100545.09
2022-08-14T09:02:10.342Z,100547.84
2022-08-14T09:04:52.871Z,100547.16
2022-08-14T09:07:27.975Z,100545.91
2022-08-14T09:10:00.145Z,100541.47
2022-08-14T09:12:31.785Z,100542.41
2022-08-14T09:15:01.824Z,100538.09
2022-08-14T09:17:29.095Z,100529.69
2022-08-14T09:19:56.657Z,100524.75
2022-08-14T09:22:35.427Z,100524.59
2022-08-14T09:25:07.040Z,100521.31
2022-08-14T09:27:36.647Z,100514.66
2022-08-14T09:30:30.645Z,100520.47
2022-08-14T09:33:10.609Z,100505.97
2022-08-14T09:35:45.870Z,100519.72
2022-08-14T09:38:26.156Z,100503.38
2022-08-14T09:41:13.631Z,100506.13
2022-08-14T09:43:43.999Z,100501.56
2022-08-14T09:46:16.995Z,100503.00
2022-08-14T09:49:04.574Z,100499.09
2022-08-14T09:51:32.740Z,100501.16
2022-08-14T09:54:12.568Z,100502.38
2022-08-14T09:56:47.056Z,100491.84
2022-08-14T09:59:28.228Z,100494.22
2022-08-14T10:01:59.513Z,100487.34
2022-08-14T10:04:36.681Z,100488.47
2022-08-14T10:07:05.685Z,100488.28
2022-08-14T10:09:34.873Z,100483.41
2022-08-14T10:12:04.444Z,100479.22
2022-08-14T10:14:36.608Z,100477.09
2022-08-14T10:17:06.334Z,100478.88
2022-08-14T10:19:35.999Z,100477.19
2022-08-14T10:23:13.598Z,100466.50
2022-08-14T10:25:00.018Z,100468.09
2022-08-14T10:27:28.896Z,100463.94
2022-08-14T10:30:01.947Z,100456.09
2022-08-14T10:32:40.195Z,100464.38
2022-08-14T10:35:16.809Z,100458.59
2022-08-14T10:37:50.098Z,100451.81
2022-08-14T10:40:37.677Z,100450.06
2022-08-14T10:43:26.034Z,100442.03
2022-08-14T10:45:59.968Z,100431.84
2022-08-14T10:49:00.821Z,100431.44
2022-08-14T10:51:34.053Z,100426.81
2022-08-14T10:54:35.112Z,100426.97
2022-08-14T10:57:12.262Z,100417.19
2022-08-14T10:59:50.489Z,100414.56
2022-08-14T11:02:36.192Z,100410.75
2022-08-14T11:05:13.068Z,100406.63
2022-08-14T11:07:50.932Z,100410.75
2022-08-14T11:10:39.670Z,100406.28
2022-08-14T11:13:15.451Z,100409.34
2022-08-14T11:15:43.143Z,100404.38
2022-08-14T11:18:12.100Z,100403.63
2022-08-14T11:20:54.466Z,100408.59
2022-08-14T11:23:28.386Z,100400.97
2022-08-14T11:26:07.069Z,100403.53
2022-08-14T11:28:48.062Z,100397.03
2022-08-14T11:31:25.583Z,100402.75
2022-08-14T11:33:55.286Z,100398.41
2022-08-14T11:37:02.007Z,100394.03
2022-08-14T11:39:34.508Z,100398.59
2022-08-14T11:42:57.236Z,100389.69
2022-08-14T11:44:56.634Z,100387.69
2022-08-14T11:47:27.202Z,100393.81
2022-08-14T11:50:13.246Z,100382.72
2022-08-14T11:52:40.696Z,100389.53
2022-08-14T11:55:11.572Z,100380.34
2022-08-14T11:57:40.536Z,100383.53
2022-08-14T12:00:19.738Z,100376.56
2022-08-14T12:03:03.213Z,100369.81
2022-08-14T12:05:38.768Z,100372.13
2022-08-14T12:08:11.106Z,100365.94
2022-08-14T12:10:42.689Z,100362.22
2022-08-14T12:13:13.890Z,100370.22
2022-08-14T12:15:45.320Z,100355.16
2022-08-14T12:18:19.770Z,100353.84
2022-08-14T12:20:52.209Z,100341.28
2022-08-14T12:23:23.095Z,100342.16
2022-08-14T12:26:01.478Z,100346.06
2022-08-14T12:28:59.482Z,100330.72
2022-08-14T12:31:26.202Z,100341.69
2022-08-14T12:33:59.692Z,100338.94
2022-08-14T12:36:30.928Z,100341.13
2022-08-14T12:38:58.399Z,100326.03
2022-08-14T12:41:36.985Z,100322.75
2022-08-14T12:44:08.447Z,100318.91
2022-08-14T12:46:37.776Z,100314.78
2022-08-14T12:49:16.232Z,100303.50
2022-08-14T12:51:44.693Z,100309.03
2022-08-14T12:54:27.646Z,100307.13
2022-08-14T12:57:09.040Z,100305.13
2022-08-14T12:59:42.630Z,100291.25
2022-08-14T13:02:26.608Z,100294.31
2022-08-14T13:04:55.733Z,100287.75
2022-08-14T13:07:24.145Z,100280.69
2022-08-14T13:09:58.365Z,100278.69
2022-08-14T13:12:31.820Z,100271.84
2022-08-14T13:15:08.840Z,100273.75
2022-08-14T13:17:48.106Z,100263.81
2022-08-14T13:20:23.478Z,100265.00
2022-08-14T13:22:54.894Z,100261.03
2022-08-14T13:25:25.479Z,100246.31
2022-08-14T13:27:57.592Z,100251.28
2022-08-14T13:30:26.204Z,100245.59
2022-08-14T13:32:54.661Z,100240.06
2022-08-14T13:35:25.391Z,100235.63
2022-08-14T13:37:53.704Z,100229.78
2022-08-14T13:40:26.045Z,100219.34
2022-08-14T13:42:55.203Z,100211.56
2022-08-14T13:45:59.412Z,100212.97
2022-08-14T13:48:32.524Z,100210.09
2022-08-14T13:51:04.750Z,100216.81
2022-08-14T13:53:37.967Z,100216.19
2022-08-14T13:56:14.602Z,100207.97
2022-08-14T13:58:47.040Z,100206.38
2022-08-14T14:01:16.190Z,100206.66
2022-08-14T14:03:46.651Z,100195.84
2022-08-14T14:06:16.168Z,100198.53
2022-08-14T14:08:49.036Z,100184.72
2022-08-14T14:11:20.882Z,100182.72
2022-08-14T14:13:48.515Z,100178.50
2022-08-14T14:16:26.208Z,100168.19
2022-08-14T14:19:08.986Z,100162.69
2022-08-14T14:21:38.137Z,100165.75
2022-08-14T14:24:08.484Z,100161.25
2022-08-14T14:26:47.164Z,100148.28
2022-08-14T14:29:15.001Z,100138.78
2022-08-14T14:31:48.069Z,100142.50
2022-08-14T14:34:29.386Z,100143.47
2022-08-14T14:37:02.597Z,100148.38
2022-08-14T14:39:35.190Z,100144.00
2022-08-14T14:42:08.057Z,100148.28
2022-08-14T14:44:40.329Z,100144.69
2022-08-14T14:47:12.320Z,100156.34
2022-08-14T14:49:51.383Z,100145.66
2022-08-14T14:52:27.734Z,100138.69
2022-08-14T14:54:59.142Z,100141.78
2022-08-14T14:57:34.988Z,100145.19
2022-08-14T15:00:12.631Z,100132.56
2022-08-14T15:02:45.069Z,100133.38
2022-08-14T15:05:14.156Z,100129.47
2022-08-14T15:07:42.450Z,100133.25
2022-08-14T15:10:28.055Z,100126.06
2022-08-14T15:13:03.437Z,100123.69
2022-08-14T15:15:32.589Z,100122.41
2022-08-14T15:18:01.053Z,100120.97
2022-08-14T15:20:30.819Z,100118.69
2022-08-14T15:23:12.059Z,100118.69
2022-08-14T15:25:40.886Z,100110.16
2022-08-14T15:28:11.469Z,100103.03
2022-08-14T15:30:41.446Z,100097.88
2022-08-14T15:33:09.904Z,100103.97
2022-08-14T15:35:37.127Z,100097.91
2022-08-14T15:38:12.113Z,100095.34
2022-08-14T15:40:51.719Z,100105.94
2022-08-14T15:43:25.395Z,100099.16
2022-08-14T15:45:56.162Z,100092.22
2022-08-14T15:48:23.518Z,100088.75
2022-08-14T15:50:50.800Z,100087.72
2022-08-14T15:53:22.119Z,100073.09
2022-08-14T15:55:50.466Z,100072.94
2022-08-14T15:58:24.250Z,100072.56
2022-08-14T16:01:12.749Z,100077.13
2022-08-14T16:03:42.435Z,100069.28
2022-08-14T16:06:17.597Z,100058.94
2022-08-14T16:08:46.825Z,100057.03
2022-08-14T16:11:17.914Z,100049.38
2022-08-14T16:13:47.761Z,100058.66
2022-08-14T16:16:48.142Z,100042.59
2022-08-14T16:19:10.173Z,100047.16
2022-08-14T16:21:39.490Z,100043.78
2022-08-14T16:24:08.223Z,100037.56
2022-08-14T16:27:00.441Z,100029.66
2022-08-14T16:29:34.471Z,100022.56
2022-08-14T16:32:33.605Z,100016.66
2022-08-14T16:34:54.734Z,100026.53
2022-08-14T16:37:30.915Z,100015.75
2022-08-14T16:40:01.656Z,100010.81
2022-08-14T16:42:38.640Z,100009.75
2022-08-14T16:45:24.041Z,100012.78
2022-08-14T16:47:51.144Z,100016.75
2022-08-14T16:50:42.993Z,100016.09
2022-08-14T16:53:07.446Z,100013.09
2022-08-14T16:55:53.296Z,100008.06
2022-08-14T16:58:30.181Z,100005.53
2022-08-14T17:01:23.016Z,100008.25
2022-08-14T17:04:09.666Z,100002.59
2022-08-14T17:06:45.896Z,100000.69
2022-08-14T17:09:24.047Z,99994.97
2022-08-14T17:12:35.221Z,99995.69
2022-08-14T17:15:10.642Z,99998.34
2022-08-14T17:17:40.816Z,99998.19
2022-08-14T17:20:53.769Z,99994.81
2022-08-14T17:23:11.149Z,99989.47
2022-08-14T17:25:39.028Z,99992.34
2022-08-14T17:28:50.128Z,99991.06
2022-08-14T17:31:00.260Z,99989.19
2022-08-14T17:33:40.802Z,99997.06
2022-08-14T17:36:20.750Z,99993.44
2022-08-14T17:39:06.819Z,99993.47
2022-08-14T17:41:43.580Z,99983.66
2022-08-14T17:44:45.666Z,99995.69
2022-08-14T17:47:18.351Z,99988.47
2022-08-14T17:49:52.112Z,99989.78
2022-08-14T17:52:34.973Z,99988.94
2022-08-14T17:56:00.363Z,99986.63
2022-08-14T17:57:58.653Z,99995.31
2022-08-14T18:00:26.283Z,99996.94
2022-08-14T18:02:54.444Z,100005.91
2022-08-14T18:06:07.603Z,100006.28
2022-08-14T18:08:32.218Z,100006.75
2022-08-14T18:11:00.052Z,100016.59
2022-08-14T18:13:50.831Z,100009.88
2022-08-14T18:16:19.855Z,100019.13
2022-08-14T18:18:48.288Z,100015.25
2022-08-14T18:21:43.050Z,100016.41
2022-08-14T18:24:02.699Z,100024.78
2022-08-14T18:26:36.826Z,100019.00
2022-08-14T18:29:09.901Z,100026.94
2022-08-14T18:31:44.020Z,100028.47
2022-08-14T18:34:32.102Z,100027.84
2022-08-14T18:37:18.342Z,100036.59
2022-08-14T18:40:01.418Z,100029.22
2022-08-14T18:42:40.872Z,100034.13
2022-08-14T18:45:34.381Z,100034.69
2022-08-14T18:48:18.063Z,100034.84
2022-08-14T18:51:05.308Z,100036.78
2022-08-14T18:53:59.627Z,100037.91
2022-08-14T18:56:58.479Z,100046.38
2022-08-14T18:59:43.353Z,100044.09
2022-08-14T19:02:30.601Z,100047.66
2022-08-14T19:05:02.821Z,100057.31
2022-08-14T19:07:33.436Z,100054.41
2022-08-14T19:10:10.197Z,100057.81
2022-08-14T19:12:52.577Z,100058.47
2022-08-14T19:15:26.008Z,100055.59
2022-08-14T19:18:14.019Z,100044.63
2022-08-14T19:21:13.231Z,100052.00
2022-08-14T19:23:44.127Z,100062.03
2022-08-14T19:26:35.252Z,100063.13
2022-08-14T19:29:37.785Z,100058.81
2022-08-14T19:32:36.577Z,100063.19
2022-08-14T19:35:49.168Z,100065.34
2022-08-14T19:38:44.808Z,100066.22
2022-08-14T19:41:17.622Z,100059.59
2022-08-14T19:43:52.260Z,100059.00
2022-08-14T19:46:37.870Z,100057.78
2022-08-14T19:49:06.988Z,100054.44
2022-08-14T19:51:46.932Z,100053.44
2022-08-14T19:54:16.211Z,100059.72
2022-08-14T19:56:45.147Z,100049.75
2022-08-14T19:59:18.564Z,100050.41
2022-08-14T20:01:50.561Z,100048.16
2022-08-14T20:04:47.527Z,100038.16
2022-08-14T20:08:09.132Z,100042.56
2022-08-14T20:11:05.012Z,100046.56
2022-08-14T20:13:38.510Z,100045.75
2022-08-14T20:16:12.359Z,100044.97
2022-08-14T20:18:49.568Z,100042.50
2022-08-14T20:21:18.343Z,100048.13
2022-08-14T20:23:48.276Z,100050.88
2022-08-14T20:26:31.453Z,100042.97
2022-08-14T20:29:05.073Z,100040.47
2022-08-14T20:31:37.183Z,100039.69
2022-08-14T20:34:24.479Z,100035.09
2022-08-14T20:37:09.562Z,100036.59
2022-08-14T20:39:39.954Z,100035.56
2022-08-14T20:42:34.242Z,100035.16
2022-08-14T20:45:21.538Z,100031.41
2022-08-14T20:47:56.446Z,100032.03
2022-08-14T20:50:28.882Z,100036.22
2022-08-14T20:53:00.765Z,100033.69
2022-08-14T20:55:41.626Z,100035.56
2022-08-14T20:58:43.245Z,100038.50
2022-08-14T21:01:13.774Z,100047.22
2022-08-14T21:03:57.036Z,100047.59
2022-08-14T21:07:22.662Z,100047.59
2022-08-14T21:10:03.181Z,100047.16
2022-08-14T21:12:33.670Z,100046.75
2022-08-14T21:15:01.212Z,100047.38
2022-08-14T21:17:29.548Z,100045.28
2022-08-14T21:19:57.183Z,100043.84
2022-08-14T21:22:26.728Z,100043.66
2022-08-14T21:25:01.642Z,100037.81
2022-08-14T21:27:45.985Z,100035.34
2022-08-14T21:30:21.161Z,100031.41
2022-08-14T21:33:08.998Z,100031.56
2022-08-14T21:35:45.498Z,100030.97
2022-08-14T21:38:17.886Z,100034.28
2022-08-14T21:40:49.064Z,100033.63
2022-08-14T21:43:23.197Z,100032.19
2022-08-14T21:45:58.180Z,100033.84
2022-08-14T21:48:31.393Z,100027.22
2022-08-14T21:51:52.499Z,100020.56
2022-08-14T21:53:59.190Z,100019.31
2022-08-14T21:56:38.348Z,100008.88
2022-08-14T21:59:17.957Z,100014.88
2022-08-14T22:02:01.860Z,100019.66
2022-08-14T22:04:33.705Z,100013.84
2022-08-14T22:07:07.419Z,100016.09
2022-08-14T22:09:36.649Z,100013.63
2022-08-14T22:12:09.549Z,100014.03
2022-08-14T22:14:43.458Z,100015.06
2022-08-14T22:17:16.508Z,100014.41
2022-08-14T22:19:55.068Z,100007.97
2022-08-14T22:22:25.941Z,100008.16
2022-08-14T22:24:59.691Z,100005.69
2022-08-14T22:27:30.029Z,100001.94
2022-08-14T22:30:01.143Z,100010.41
2022-08-14T22:32:56.773Z,100019.91
2022-08-14T22:35:16.504Z,100007.06
2022-08-14T22:37:44.612Z,100007.88
2022-08-14T22:40:54.868Z,100004.72
2022-08-14T22:43:08.301Z,100000.94
2022-08-14T22:45:37.780Z,99999.47
2022-08-14T22:48:11.192Z,99996.75
2022-08-14T22:50:53.416Z,99992.81
2022-08-14T22:53:21.829Z,99988.22
2022-08-14T22:55:52.040Z,99995.03
2022-08-14T22:58:31.578Z,99993.94
2022-08-14T23:01:12.023Z,99991.84
2022-08-14T23:03:42.181Z,99982.72
2022-08-14T23:07:02.736Z,99993.03
2022-08-14T23:09:35.504Z,99992.78
2022-08-14T23:11:46.727Z,99990.47
2022-08-14T23:14:14.972Z,99992.09
2022-08-14T23:16:57.085Z,99989.19
2022-08-14T23:19:25.720Z,99979.84
2022-08-14T23:22:01.334Z,99979.56
2022-08-14T23:24:28.926Z,99983.66
2022-08-14T23:26:57.834Z,99981.34
2022-08-14T23:29:24.994Z,99981.56
2022-08-14T23:31:52.640Z,99983.63
2022-08-14T23:34:22.221Z,99983.19
2022-08-14T23:36:55.355Z,99979.00
2022-08-14T23:39:30.164Z,99981.28
2022-08-14T23:42:02.340Z,99965.72
2022-08-14T23:44:35.112Z,99966.09
2022-08-14T23:47:11.911Z,99967.31
2022-08-14T23:49:59.795Z,99959.81
2022-08-14T23:52:55.892Z,99963.75
2022-08-14T23:55:17.341Z,99966.00
2022-08-14T23:57:57.679Z,99971.75
